Meteo Giornale » Osservazioni meteo Stati Uniti (USA) » Virginia Beach Oceana
ore: 00:56 - Osservazioni Meteo Virginia Beach Oceana
Lat. 36° 49' N Lon. 76° 1' W Alt. 6 metri s.l.m.
26 °C
Molto Nuvoloso
Temp. 24 Ore
22 °C
32 °C
Nord
5.5 Km/h
Dew point 23 °C
Umidità 83 %
Visibilità 10 Km
Il sole sorge alle ore 06:35
Il sole tramonta alle ore 19:32
| Data e Ora | Cielo e Fenomeni | T °C | DP °C | Um. % | Pres. hPa | Vis. km | Vento km/h | |
|---|---|---|---|---|---|---|---|---|
| Oggi h: 00:56 | Molto Nuvoloso | 26 | 23 | 83 | 1018 | 10 | N 5.5 | |
| Ieri h: 23:56 | Coperto | 25 | 22 | 83 | 1018 | 10 | N 0 | |
| Ieri h: 22:56 | Coperto | 24 | 22 | 88 | 1018 | 10 | N 5.5 | |
| Ieri h: 21:56 | Molto Nuvoloso | 24 | 22 | 88 | 1018 | 10 | N 0 | |
| Ieri h: 20:56 | Molto Nuvoloso | 24 | 22 | 88 | 1018 | 10 | N 0 | |
| Ieri h: 19:56 | Molto Nuvoloso | 26 | 21 | 73 | 1017 | 10 | N 5.5 | |
| Ieri h: 19:03 | Molto Nuvoloso | 27 | 21 | 69 | 1017 | 10 | N 5.5 | |
| Ieri h: 18:56 | Temporale | 26 | 21 | 73 | 1017 | 10 | N 5.5 | |
| Ieri h: 18:17 | Temporale | 26 | 21 | 73 | 1018 | 10 | S/SO 11.1 | |
| Ieri h: 17:56 | Temporale | 26 | 21 | 73 | 1018 | 10 | O/SO 20.3 | |
| Ieri h: 17:47 | Temporale | 27 | 21 | 69 | 1018 | 10 | O 25.9 | |
| Ieri h: 16:56 | Temporale | 29 | 22 | 66 | 1017 | 10 | SE 14.8 | |
| Ieri h: 16:47 | Temporale | 30 | 21 | 58 | 1017 | 10 | SE 16.7 | |
| Ieri h: 15:56 | Molto Nuvoloso | 30 | 22 | 62 | 1017 | 10 | SE 18.5 | |
| Ieri h: 15:49 | Molto Nuvoloso | 30 | 22 | 62 | 1017 | 10 | SE 20.3 | |
| Ieri h: 14:56 | Nuvoloso | 32 | 22 | 55 | 1018 | 10 | E/SE 24 | |
| Ieri h: 13:56 | Nuvoloso | 32 | 21 | 52 | 1018 | 10 | E/SE 14.8 | |
| Ieri h: 12:56 | Poco Nuvoloso | 31 | 23 | 62 | 1018 | 10 | SE 18.5 | |
| Ieri h: 11:56 | Sereno | 32 | 21 | 52 | 1019 | 10 | N 5.5 | |
| Ieri h: 10:56 | Sereno | 30 | 22 | 62 | 1019 | 10 | N 5.5 | |
| Ieri h: 09:56 | Sereno | 29 | 22 | 66 | 1019 | 10 | NO 11.1 | |
| Ieri h: 08:56 | Poco Nuvoloso | 27 | 22 | 74 | 1018 | 10 | O 7.4 | |
| Ieri h: 07:56 | Poco Nuvoloso | 24 | 22 | 88 | 1019 | 14 | N 5.5 | |
| Ieri h: 06:56 | Poco Nuvoloso | 22 | 21 | 94 | 1019 | 10 | N 5.5 | |
| Ieri h: 05:56 | Poco Nuvoloso | 22 | 21 | 94 | 1018 | 10 | N 5.5 | |
| Ieri h: 04:56 | Poco Nuvoloso | 23 | 22 | 94 | 1018 | 10 | N 5.5 | |
| Ieri h: 03:56 | Poco Nuvoloso | 23 | 22 | 94 | 1018 | 10 | O/SO 9.3 | |
| Ieri h: 02:56 | Poco Nuvoloso | 23 | 22 | 94 | 1019 | 10 | S/SO 9.3 | |
| Ieri h: 01:56 | Poco Nuvoloso | 24 | 22 | 88 | 1019 | 10 | S/SO 7.4 | |



